createdAt,value
2022-09-12T07:00:56.021Z,14.84
2022-09-12T07:03:27.080Z,14.90
2022-09-12T07:05:55.627Z,15.04
2022-09-12T07:08:24.051Z,15.07
2022-09-12T07:10:52.476Z,15.31
2022-09-12T07:13:21.334Z,15.34
2022-09-12T07:15:51.668Z,15.70
2022-09-12T07:18:21.069Z,16.91
2022-09-12T07:20:49.406Z,17.84
2022-09-12T07:23:17.895Z,18.72
2022-09-12T07:25:54.435Z,19.36
2022-09-12T07:28:22.817Z,19.52
2022-09-12T07:30:54.015Z,19.86
2022-09-12T07:33:22.538Z,20.09
2022-09-12T07:35:51.028Z,20.37
2022-09-12T07:38:19.341Z,21.01
2022-09-12T07:40:47.986Z,21.13
2022-09-12T07:43:16.386Z,20.91
2022-09-12T07:45:44.734Z,21.52
2022-09-12T07:48:14.879Z,21.62
2022-09-12T07:50:45.139Z,21.67
2022-09-12T07:53:13.615Z,22.14
2022-09-12T07:55:41.949Z,21.66
2022-09-12T07:58:10.187Z,21.82
2022-09-12T08:00:38.499Z,22.03
2022-09-12T08:03:07.301Z,21.74
2022-09-12T08:05:37.215Z,22.74
2022-09-12T08:08:05.727Z,23.16
2022-09-12T08:10:34.034Z,22.66
2022-09-12T08:13:03.089Z,22.35
2022-09-12T08:15:32.252Z,22.38
2022-09-12T08:18:00.567Z,22.04
2022-09-12T08:20:29.155Z,22.56
2022-09-12T08:22:58.864Z,22.99
2022-09-12T08:25:27.183Z,23.21
2022-09-12T08:27:55.767Z,22.49
2022-09-12T08:30:24.040Z,22.54
2022-09-12T08:32:52.404Z,22.55
2022-09-12T08:35:20.709Z,22.81
2022-09-12T08:37:49.230Z,22.69
2022-09-12T08:40:19.544Z,22.68
2022-09-12T08:43:00.270Z,22.52
2022-09-12T08:45:38.168Z,22.62
2022-09-12T08:48:10.808Z,22.69
2022-09-12T08:50:49.248Z,22.60
2022-09-12T08:53:22.738Z,22.69
2022-09-12T08:55:58.735Z,22.94
2022-09-12T08:58:29.773Z,22.86
2022-09-12T09:01:08.773Z,22.47
2022-09-12T09:03:53.199Z,22.55
2022-09-12T09:06:37.488Z,22.48
2022-09-12T09:09:11.993Z,22.67
2022-09-12T09:11:57.064Z,22.86
2022-09-12T09:14:54.096Z,22.42
2022-09-12T09:17:27.362Z,22.89
2022-09-12T09:20:05.370Z,23.09
2022-09-12T09:22:43.169Z,23.50
2022-09-12T09:25:22.848Z,23.72
2022-09-12T09:27:59.751Z,24.23
2022-09-12T09:30:28.692Z,23.95
2022-09-12T09:33:01.132Z,23.81
2022-09-12T09:35:41.495Z,23.79
2022-09-12T09:38:24.768Z,23.86
2022-09-12T09:41:11.088Z,23.83
2022-09-12T09:43:41.004Z,23.98
2022-09-12T09:46:10.340Z,24.11
2022-09-12T09:48:46.355Z,24.25
2022-09-12T09:51:18.558Z,24.33
2022-09-12T09:53:51.628Z,24.37
2022-09-12T09:56:30.256Z,24.32
2022-09-12T09:59:11.888Z,23.99
2022-09-12T10:01:47.333Z,23.71
2022-09-12T10:04:21.744Z,23.50
2022-09-12T10:06:54.370Z,23.33
2022-09-12T10:09:27.189Z,23.25
2022-09-12T10:11:57.498Z,23.36
2022-09-12T10:14:38.480Z,23.41
2022-09-12T10:17:33.792Z,23.41
2022-09-12T10:22:51.924Z,23.85
2022-09-12T10:25:21.586Z,24.01
2022-09-12T10:27:56.420Z,24.22
2022-09-12T10:30:28.525Z,24.38
2022-09-12T10:33:06.507Z,24.23
2022-09-12T10:35:48.701Z,24.10
2022-09-12T10:38:24.493Z,23.91
2022-09-12T10:40:59.295Z,24.22
2022-09-12T10:43:32.011Z,24.13
2022-09-12T10:46:29.872Z,24.11
2022-09-12T10:49:25.881Z,23.78
2022-09-12T10:51:55.633Z,24.07
2022-09-12T10:54:27.447Z,23.98
2022-09-12T10:57:39.037Z,24.26
2022-09-12T11:00:17.492Z,24.22
2022-09-12T11:02:55.544Z,24.24
2022-09-12T11:05:40.286Z,24.05
2022-09-12T11:08:28.981Z,24.32
2022-09-12T11:11:06.526Z,23.74
2022-09-12T11:14:10.646Z,23.93
2022-09-12T11:16:47.458Z,24.44
2022-09-12T11:19:39.771Z,24.58
2022-09-12T11:22:32.075Z,24.77
2022-09-12T11:25:25.180Z,25.12
2022-09-12T11:28:21.130Z,25.38
2022-09-12T11:31:12.764Z,25.56
2022-09-12T11:33:45.603Z,25.27
2022-09-12T11:36:33.700Z,25.35
2022-09-12T11:39:14.925Z,25.19
2022-09-12T11:41:46.163Z,25.01
2022-09-12T11:44:20.453Z,25.10
2022-09-12T11:46:51.737Z,25.25
2022-09-12T11:49:29.723Z,25.44
2022-09-12T11:52:08.500Z,24.53
2022-09-12T11:54:42.451Z,24.39
2022-09-12T11:57:18.149Z,24.50
2022-09-12T11:59:53.866Z,24.68
2022-09-12T12:02:28.919Z,24.26
2022-09-12T12:05:15.247Z,24.24
2022-09-12T12:07:54.988Z,24.41
2022-09-12T12:10:29.069Z,24.55
2022-09-12T12:12:58.820Z,24.64
2022-09-12T12:15:28.407Z,24.44
2022-09-12T12:18:07.135Z,24.50
2022-09-12T12:20:36.346Z,23.88
2022-09-12T12:23:06.098Z,23.82
2022-09-12T12:25:51.704Z,23.81
2022-09-12T12:28:57.176Z,24.06
2022-09-12T12:31:25.587Z,24.14
2022-09-12T12:34:21.701Z,24.19
2022-09-12T12:36:50.469Z,24.02
2022-09-12T12:40:05.869Z,24.30
2022-09-12T12:43:31.972Z,24.64
2022-09-12T12:46:11.706Z,24.59
2022-09-12T12:49:06.325Z,24.81
2022-09-12T12:52:01.459Z,24.62
2022-09-12T12:54:58.069Z,24.72
2022-09-12T12:57:47.518Z,24.28
2022-09-12T13:00:35.051Z,24.25
2022-09-12T13:03:12.018Z,24.03
2022-09-12T13:05:42.920Z,24.12
2022-09-12T13:08:31.624Z,24.44
2022-09-12T13:11:04.513Z,24.46
2022-09-12T13:13:39.683Z,24.54
2022-09-12T13:16:10.766Z,24.44
2022-09-12T13:18:45.546Z,23.98
2022-09-12T13:21:16.676Z,24.06
2022-09-12T13:23:47.751Z,24.09
2022-09-12T13:26:25.235Z,24.05
2022-09-12T13:29:11.875Z,24.00
2022-09-12T13:31:44.149Z,23.87
2022-09-12T13:34:21.153Z,23.94
2022-09-12T13:37:26.127Z,23.97
2022-09-12T13:40:05.731Z,23.92
2022-09-12T13:42:42.595Z,23.84
2022-09-12T13:45:21.795Z,23.85
2022-09-12T13:47:58.002Z,23.74
2022-09-12T13:50:29.990Z,23.83
2022-09-12T13:53:02.733Z,23.85
2022-09-12T13:55:34.294Z,23.92
2022-09-12T13:58:04.927Z,24.06
2022-09-12T14:00:37.246Z,23.91
2022-09-12T14:03:45.579Z,23.94
2022-09-12T14:06:18.970Z,23.70
2022-09-12T14:08:49.002Z,23.88
2022-09-12T14:11:27.603Z,23.94
2022-09-12T14:13:56.916Z,24.04
2022-09-12T14:16:27.435Z,23.74
2022-09-12T14:18:56.158Z,23.88
2022-09-12T14:21:35.701Z,24.04
2022-09-12T14:24:08.615Z,23.71
2022-09-12T14:26:40.589Z,23.82
2022-09-12T14:29:10.165Z,23.90
2022-09-12T14:31:41.377Z,23.81
2022-09-12T14:34:13.678Z,23.94
2022-09-12T14:36:46.541Z,24.00
2022-09-12T14:39:27.833Z,23.95
2022-09-12T14:42:06.711Z,23.77
2022-09-12T14:44:36.854Z,23.65
2022-09-12T14:47:19.279Z,23.74
2022-09-12T14:49:48.046Z,23.97
2022-09-12T14:52:35.116Z,24.08
2022-09-12T14:55:19.881Z,23.52
2022-09-12T14:57:50.076Z,23.80
2022-09-12T15:00:25.157Z,23.43
2022-09-12T15:02:55.829Z,23.53
2022-09-12T15:05:28.913Z,23.60
2022-09-12T15:08:02.031Z,23.58
2022-09-12T15:10:33.130Z,23.54
2022-09-12T15:13:18.970Z,23.51
2022-09-12T15:15:50.939Z,23.64
2022-09-12T15:18:22.085Z,23.67
2022-09-12T15:20:53.915Z,23.76
2022-09-12T15:23:32.909Z,23.61
2022-09-12T15:26:01.650Z,23.62
2022-09-12T15:28:32.558Z,23.73
2022-09-12T15:31:12.008Z,23.81
2022-09-12T15:33:41.811Z,23.83
2022-09-12T15:36:17.664Z,23.81
2022-09-12T15:38:47.256Z,23.89
2022-09-12T15:41:19.014Z,23.73
2022-09-12T15:43:48.174Z,23.78
2022-09-12T15:46:19.194Z,23.90
2022-09-12T15:48:49.177Z,23.80
2022-09-12T15:51:20.958Z,23.92
2022-09-12T15:53:50.997Z,23.78
2022-09-12T15:56:22.141Z,23.87
2022-09-12T15:58:59.786Z,23.76
2022-09-12T16:01:29.860Z,23.66
2022-09-12T16:03:59.805Z,23.78
2022-09-12T16:06:33.620Z,23.81
2022-09-12T16:09:04.961Z,23.74
2022-09-12T16:11:33.286Z,23.72
2022-09-12T16:14:01.567Z,23.68
2022-09-12T16:16:29.918Z,23.67
2022-09-12T16:18:59.628Z,23.64
2022-09-12T16:21:27.941Z,23.58
2022-09-12T16:23:56.256Z,23.53
2022-09-12T16:26:24.874Z,23.49
2022-09-12T16:28:56.882Z,23.49
2022-09-12T16:31:25.963Z,23.45
2022-09-12T16:33:54.542Z,23.43
2022-09-12T16:36:24.663Z,23.39
2022-09-12T16:38:54.877Z,23.39
2022-09-12T16:41:26.303Z,23.37
2022-09-12T16:43:55.355Z,23.34
2022-09-12T16:46:26.207Z,23.38
2022-09-12T16:48:57.537Z,23.32
2022-09-12T16:51:29.833Z,23.25
2022-09-12T16:53:58.492Z,23.28
2022-09-12T16:56:27.174Z,23.19
2022-09-12T16:58:55.869Z,23.08
2022-09-12T17:01:26.115Z,23.05
2022-09-12T17:03:55.491Z,23.00
2022-09-12T17:06:26.243Z,22.91
2022-09-12T17:08:57.122Z,22.86
2022-09-12T17:11:30.437Z,22.79
2022-09-12T17:14:05.445Z,22.77
2022-09-12T17:16:35.407Z,22.68
2022-09-12T17:19:04.164Z,22.64
2022-09-12T17:21:35.178Z,22.63
2022-09-12T17:24:04.813Z,22.57
2022-09-12T17:26:33.347Z,22.51
2022-09-12T17:29:02.224Z,22.50
2022-09-12T17:31:30.710Z,22.47
2022-09-12T17:34:00.799Z,22.38
2022-09-12T17:36:32.026Z,22.35
2022-09-12T17:39:04.662Z,22.31
2022-09-12T17:41:33.744Z,22.24
2022-09-12T17:44:03.552Z,22.17
2022-09-12T17:46:35.102Z,22.10
2022-09-12T17:49:06.326Z,22.05
2022-09-12T17:51:35.217Z,21.96
2022-09-12T17:54:10.466Z,21.94
2022-09-12T17:56:40.346Z,21.87
2022-09-12T17:59:11.646Z,21.86
2022-09-12T18:01:57.451Z,21.81
2022-09-12T18:04:27.120Z,21.76
2022-09-12T18:06:57.489Z,21.70
2022-09-12T18:09:27.992Z,21.60
2022-09-12T18:11:56.788Z,21.56
2022-09-12T18:14:27.710Z,21.51
2022-09-12T18:16:57.118Z,21.46
2022-09-12T18:19:26.657Z,21.42
2022-09-12T18:21:55.993Z,21.38
2022-09-12T18:24:26.548Z,21.35
2022-09-12T18:26:56.655Z,21.28
2022-09-12T18:29:25.516Z,21.27
2022-09-12T18:31:53.808Z,21.24
2022-09-12T18:34:22.220Z,21.19
2022-09-12T18:36:54.253Z,21.17
2022-09-12T18:39:26.876Z,21.16
2022-09-12T18:41:57.507Z,21.13
2022-09-12T18:44:25.853Z,21.11
2022-09-12T18:46:54.196Z,21.10
2022-09-12T18:49:22.523Z,21.06
2022-09-12T18:51:51.892Z,21.08
2022-09-12T18:54:23.229Z,21.04
2022-09-12T18:56:51.577Z,20.98
2022-09-12T18:59:21.365Z,20.95
2022-09-12T19:01:50.287Z,20.94
2022-09-12T19:04:18.805Z,20.93
2022-09-12T19:06:50.542Z,20.90
2022-09-12T19:09:21.698Z,20.82
2022-09-12T19:11:50.679Z,20.75
2022-09-12T19:14:23.679Z,20.71
2022-09-12T19:16:52.686Z,20.69
2022-09-12T19:19:21.438Z,20.62
2022-09-12T19:21:49.837Z,20.48
2022-09-12T19:24:18.280Z,20.47
2022-09-12T19:26:47.172Z,20.42
2022-09-12T19:29:16.694Z,20.40
2022-09-12T19:31:47.214Z,20.39
2022-09-12T19:34:16.049Z,20.32
2022-09-12T19:36:46.661Z,20.28
2022-09-12T19:39:17.174Z,20.22
2022-09-12T19:41:46.361Z,20.19
2022-09-12T19:44:15.194Z,20.10
2022-09-12T19:46:45.463Z,20.04
2022-09-12T19:49:14.247Z,20.00
2022-09-12T19:51:43.874Z,19.98
2022-09-12T19:54:12.364Z,19.93
2022-09-12T19:56:40.757Z,19.94
2022-09-12T19:59:09.811Z,19.95
2022-09-12T20:01:38.489Z,19.91
2022-09-12T20:04:08.337Z,19.86
2022-09-12T20:06:36.800Z,19.80
2022-09-12T20:09:05.758Z,19.76
2022-09-12T20:11:34.235Z,19.69
2022-09-12T20:14:02.853Z,19.64
2022-09-12T20:16:33.394Z,19.64
2022-09-12T20:19:06.124Z,19.55
2022-09-12T20:21:37.178Z,19.50
2022-09-12T20:24:08.798Z,19.45
2022-09-12T20:26:37.487Z,19.37
2022-09-12T20:29:07.086Z,19.31
2022-09-12T20:31:37.109Z,19.24
2022-09-12T20:34:06.186Z,19.21
2022-09-12T20:36:35.990Z,19.10
2022-09-12T20:39:04.959Z,19.11
2022-09-12T20:41:35.651Z,19.09
2022-09-12T20:44:04.274Z,19.05
2022-09-12T20:46:33.153Z,19.01
2022-09-12T20:49:01.481Z,18.99
2022-09-12T20:51:30.489Z,18.93
2022-09-12T20:54:03.227Z,18.91
2022-09-12T20:56:34.155Z,18.83
2022-09-12T20:59:02.895Z,18.85
2022-09-12T21:01:32.477Z,18.81
2022-09-12T21:04:01.826Z,18.76
2022-09-12T21:06:30.385Z,18.65
2022-09-12T21:09:00.675Z,18.66
2022-09-12T21:11:29.380Z,18.55
2022-09-12T21:13:58.248Z,18.48
2022-09-12T21:16:26.846Z,18.45
2022-09-12T21:18:58.732Z,18.37
2022-09-12T21:21:27.761Z,18.37
2022-09-12T21:24:00.961Z,18.35
2022-09-12T21:26:29.690Z,18.33
2022-09-12T21:28:58.192Z,18.29
2022-09-12T21:31:27.269Z,18.20
2022-09-12T21:33:55.735Z,18.17
2022-09-12T21:36:24.956Z,18.15
2022-09-12T21:38:53.504Z,18.12
2022-09-12T21:41:23.175Z,18.10
2022-09-12T21:43:51.579Z,18.09
2022-09-12T21:46:19.966Z,18.08
2022-09-12T21:48:48.366Z,18.05
2022-09-12T21:51:16.636Z,17.99
2022-09-12T21:53:45.076Z,17.98
2022-09-12T21:56:13.475Z,17.98
2022-09-12T21:58:43.217Z,17.92
2022-09-12T22:01:13.142Z,17.94
2022-09-12T22:03:43.129Z,17.95
2022-09-12T22:06:11.549Z,17.95
2022-09-12T22:08:40.579Z,17.95
2022-09-12T22:11:10.484Z,17.88
2022-09-12T22:13:39.925Z,17.85
2022-09-12T22:16:09.897Z,17.81
2022-09-12T22:18:39.134Z,17.78
2022-09-12T22:21:12.321Z,17.79
2022-09-12T22:23:58.646Z,17.73
2022-09-12T22:26:28.207Z,17.73
2022-09-12T22:28:57.135Z,17.72
2022-09-12T22:31:27.622Z,17.72
2022-09-12T22:33:57.346Z,17.71
2022-09-12T22:36:30.496Z,17.67
2022-09-12T22:39:00.098Z,17.65
2022-09-12T22:41:28.539Z,17.62
2022-09-12T22:43:57.905Z,17.62
2022-09-12T22:46:27.974Z,17.62
2022-09-12T22:48:56.702Z,17.58
2022-09-12T22:51:25.780Z,17.57
2022-09-12T22:53:54.204Z,17.57
2022-09-12T22:56:22.538Z,17.58
2022-09-12T22:58:51.087Z,17.61
2022-09-12T23:01:19.632Z,17.60
2022-09-12T23:03:49.540Z,17.57
2022-09-12T23:06:19.003Z,17.57
2022-09-12T23:08:47.311Z,17.58
2022-09-12T23:11:19.087Z,17.54
2022-09-12T23:13:49.429Z,17.51
2022-09-12T23:16:20.653Z,17.42
2022-09-12T23:18:50.748Z,17.48
2022-09-12T23:21:21.961Z,17.49
2022-09-12T23:23:50.682Z,17.47
2022-09-12T23:26:20.749Z,17.40
2022-09-12T23:28:51.265Z,17.30
2022-09-12T23:31:19.809Z,17.30
2022-09-12T23:33:50.041Z,17.18
2022-09-12T23:36:18.322Z,17.17
2022-09-12T23:38:48.034Z,17.15
2022-09-12T23:41:19.011Z,17.17
2022-09-12T23:43:47.974Z,17.23
2022-09-12T23:46:18.822Z,17.30
2022-09-12T23:48:47.176Z,17.28
2022-09-12T23:51:17.194Z,17.32
2022-09-12T23:53:45.471Z,17.33
2022-09-12T23:56:13.775Z,17.31
2022-09-12T23:58:42.211Z,17.32
